createdAt,value
2023-03-29T00:01:42.122Z,85.47
2023-03-29T00:04:45.478Z,86.10
2023-03-29T00:07:48.526Z,85.80
2023-03-29T00:10:52.187Z,85.08
2023-03-29T00:13:55.084Z,85.61
2023-03-29T00:16:58.508Z,84.91
2023-03-29T00:20:01.466Z,84.79
2023-03-29T00:23:04.352Z,84.17
2023-03-29T00:26:08.254Z,84.81
2023-03-29T00:29:13.018Z,85.16
2023-03-29T00:32:16.387Z,85.53
2023-03-29T00:35:19.935Z,85.06
2023-03-29T00:38:22.890Z,85.63
2023-03-29T00:41:26.357Z,85.01
2023-03-29T00:45:04.089Z,85.48
2023-03-29T00:48:11.370Z,85.25
2023-03-29T00:51:19.120Z,85.02
2023-03-29T00:54:21.997Z,85.43
2023-03-29T00:57:28.373Z,85.47
2023-03-29T01:00:36.994Z,85.43
2023-03-29T01:03:46.613Z,85.62
2023-03-29T01:07:05.889Z,85.26
2023-03-29T01:10:20.689Z,84.75
2023-03-29T01:13:37.333Z,85.44
2023-03-29T01:16:41.886Z,83.63
2023-03-29T01:19:58.190Z,83.51
2023-03-29T01:23:22.384Z,83.38
2023-03-29T01:26:49.121Z,83.75
2023-03-29T01:29:58.781Z,83.65
2023-03-29T01:33:24.224Z,83.61
2023-03-29T01:36:29.928Z,83.73
2023-03-29T01:39:34.433Z,84.26
2023-03-29T01:43:01.902Z,84.24
2023-03-29T01:46:11.597Z,84.38
2023-03-29T01:49:23.491Z,84.99
2023-03-29T01:52:34.942Z,85.84
2023-03-29T01:55:43.344Z,85.81
2023-03-29T01:58:51.379Z,85.10
2023-03-29T02:01:58.858Z,85.08
2023-03-29T02:05:04.211Z,84.72
2023-03-29T02:08:10.065Z,84.88
2023-03-29T02:11:13.447Z,84.68
2023-03-29T02:14:17.191Z,84.87
2023-03-29T02:17:23.254Z,83.92
2023-03-29T02:20:40.762Z,83.52
2023-03-29T02:23:46.767Z,82.95
2023-03-29T02:26:50.085Z,82.57
2023-03-29T02:29:53.499Z,82.77
2023-03-29T02:33:05.949Z,82.58
2023-03-29T02:36:31.480Z,83.00
2023-03-29T02:39:36.040Z,82.24
2023-03-29T02:42:42.386Z,81.58
2023-03-29T02:45:47.387Z,81.87
2023-03-29T02:48:53.050Z,81.52
2023-03-29T02:52:01.599Z,80.93
2023-03-29T02:55:08.603Z,80.90
2023-03-29T02:58:13.625Z,81.28
2023-03-29T03:01:18.506Z,80.94
2023-03-29T03:04:21.771Z,81.12
2023-03-29T03:07:25.082Z,81.66
2023-03-29T03:10:28.029Z,81.55
2023-03-29T03:13:33.286Z,81.52
2023-03-29T03:16:37.215Z,82.11
2023-03-29T03:19:40.166Z,82.69
2023-03-29T03:22:48.939Z,83.17
2023-03-29T03:25:52.821Z,83.28
2023-03-29T03:28:56.654Z,83.25
2023-03-29T03:32:18.730Z,83.84
2023-03-29T03:35:50.914Z,84.32
2023-03-29T03:38:53.989Z,85.11
2023-03-29T03:41:57.186Z,85.24
2023-03-29T03:44:59.936Z,85.03
2023-03-29T03:48:21.978Z,84.46
2023-03-29T03:51:29.570Z,84.17
2023-03-29T03:54:32.762Z,84.19
2023-03-29T03:58:02.467Z,84.65
2023-03-29T04:01:08.528Z,84.72
2023-03-29T04:04:27.690Z,85.26
2023-03-29T04:07:41.552Z,84.84
2023-03-29T04:11:03.352Z,85.14
2023-03-29T04:14:12.447Z,85.38
2023-03-29T04:17:33.678Z,85.66
2023-03-29T04:20:44.058Z,85.84
2023-03-29T04:23:48.764Z,85.92
2023-03-29T04:26:51.584Z,86.35
2023-03-29T04:29:58.919Z,86.26
2023-03-29T04:33:21.504Z,86.68
2023-03-29T04:36:31.113Z,86.66
2023-03-29T04:39:34.446Z,87.18
2023-03-29T04:42:44.476Z,87.09
2023-03-29T04:45:47.259Z,86.95
2023-03-29T04:49:03.010Z,87.34
2023-03-29T04:52:12.245Z,86.41
2023-03-29T04:55:15.068Z,86.40
2023-03-29T04:58:50.075Z,86.99
2023-03-29T05:01:54.736Z,87.12
2023-03-29T05:04:57.995Z,87.34
2023-03-29T05:08:01.091Z,87.27
2023-03-29T05:11:13.883Z,87.30
2023-03-29T05:14:18.676Z,87.13
2023-03-29T05:17:22.107Z,86.85
2023-03-29T05:20:26.318Z,87.12
2023-03-29T05:23:29.920Z,86.67
2023-03-29T05:27:02.563Z,85.61
2023-03-29T05:30:09.311Z,83.99
2023-03-29T05:33:21.193Z,82.89
2023-03-29T05:36:24.912Z,81.51
2023-03-29T05:39:27.963Z,80.48
2023-03-29T05:42:31.368Z,78.04
2023-03-29T05:45:39.280Z,77.20
2023-03-29T05:48:42.486Z,76.01
2023-03-29T05:51:46.522Z,75.43
2023-03-29T05:54:49.264Z,75.33
2023-03-29T05:57:52.757Z,74.22
2023-03-29T06:01:00.695Z,73.60
2023-03-29T06:04:28.044Z,72.48
2023-03-29T06:07:56.767Z,70.67
2023-03-29T06:11:20.719Z,70.56
2023-03-29T06:15:12.158Z,69.05
2023-03-29T06:18:24.758Z,65.91
2023-03-29T06:21:28.652Z,64.36
2023-03-29T06:24:32.398Z,60.77
2023-03-29T06:27:40.805Z,60.41
2023-03-29T06:30:46.359Z,61.13
2023-03-29T06:33:51.985Z,62.14
2023-03-29T06:37:07.454Z,62.67
2023-03-29T06:40:10.820Z,60.76
2023-03-29T06:43:19.297Z,57.25
2023-03-29T06:46:41.401Z,54.74
2023-03-29T06:49:44.751Z,52.60
2023-03-29T06:53:04.636Z,53.03
2023-03-29T06:56:09.909Z,52.98
2023-03-29T06:59:21.704Z,52.76
2023-03-29T07:02:35.178Z,53.03
2023-03-29T07:05:45.120Z,52.47
2023-03-29T07:08:52.601Z,53.11
2023-03-29T07:12:17.401Z,52.79
2023-03-29T07:15:22.206Z,48.41
2023-03-29T07:18:51.427Z,45.53
2023-03-29T07:22:17.148Z,41.86
2023-03-29T07:25:26.309Z,37.89
2023-03-29T07:28:29.231Z,37.48
2023-03-29T07:31:35.926Z,35.44
2023-03-29T07:34:59.487Z,32.28
2023-03-29T07:38:08.890Z,28.41
2023-03-29T07:41:21.313Z,25.35
2023-03-29T07:44:29.602Z,25.98
2023-03-29T07:47:33.310Z,24.81
2023-03-29T07:50:36.607Z,22.57
2023-03-29T07:53:40.838Z,22.26
2023-03-29T07:56:58.020Z,21.13
2023-03-29T08:00:11.986Z,19.33
2023-03-29T08:03:17.392Z,19.36
2023-03-29T08:06:20.319Z,20.23
2023-03-29T08:09:23.626Z,21.84
2023-03-29T08:12:26.818Z,23.25
2023-03-29T08:15:32.246Z,22.78
2023-03-29T08:18:35.310Z,22.55
2023-03-29T08:21:39.860Z,23.08
2023-03-29T08:24:43.415Z,22.93
2023-03-29T08:27:46.312Z,23.35
2023-03-29T08:30:53.750Z,23.79
2023-03-29T08:33:57.450Z,23.63
2023-03-29T08:37:18.581Z,25.66
2023-03-29T08:40:28.368Z,23.96
2023-03-29T08:43:55.303Z,22.32
2023-03-29T08:47:30.029Z,20.54
2023-03-29T08:50:48.086Z,21.27
2023-03-29T08:53:56.712Z,22.38
2023-03-29T08:57:33.719Z,21.70
2023-03-29T09:00:48.522Z,21.62
2023-03-29T09:04:14.966Z,22.33
2023-03-29T09:07:26.900Z,21.54
2023-03-29T09:10:42.569Z,22.72
2023-03-29T09:14:07.162Z,23.63
2023-03-29T09:17:10.191Z,24.34
2023-03-29T09:20:13.008Z,23.74
2023-03-29T09:23:31.393Z,25.23
2023-03-29T09:27:10.384Z,24.57
2023-03-29T09:30:31.429Z,22.71
2023-03-29T09:33:45.094Z,22.68
2023-03-29T09:36:58.302Z,23.02
2023-03-29T09:40:07.180Z,24.18
2023-03-29T09:43:44.450Z,24.54
2023-03-29T09:46:57.829Z,25.64
2023-03-29T09:50:31.026Z,26.98
2023-03-29T09:53:37.363Z,25.80
2023-03-29T09:57:14.050Z,25.19
2023-03-29T10:00:18.156Z,24.58
2023-03-29T10:03:26.537Z,23.20
2023-03-29T10:06:43.449Z,21.71
2023-03-29T10:09:50.710Z,18.62
2023-03-29T10:13:04.256Z,18.91
2023-03-29T10:16:09.976Z,20.28
2023-03-29T10:19:30.999Z,21.63
2023-03-29T10:22:38.405Z,20.70
2023-03-29T10:25:46.219Z,22.75
2023-03-29T10:28:55.209Z,23.27
2023-03-29T10:31:58.650Z,24.14
2023-03-29T10:35:12.473Z,24.46
2023-03-29T10:38:19.274Z,25.22
2023-03-29T10:41:23.302Z,25.38
2023-03-29T10:44:36.776Z,20.69
2023-03-29T10:47:45.806Z,18.92
2023-03-29T10:50:53.202Z,17.88
2023-03-29T10:54:00.563Z,17.83
2023-03-29T10:57:10.623Z,19.09
2023-03-29T11:00:18.492Z,20.82
2023-03-29T11:04:01.330Z,20.38
2023-03-29T11:07:32.056Z,21.64
2023-03-29T11:10:53.096Z,20.87
2023-03-29T11:14:08.770Z,19.74
2023-03-29T11:17:44.814Z,19.01
2023-03-29T11:21:00.526Z,19.81
2023-03-29T11:24:22.532Z,21.85
2023-03-29T11:28:02.362Z,23.23
2023-03-29T11:31:38.387Z,24.51
2023-03-29T11:35:03.565Z,26.38
2023-03-29T11:38:12.847Z,25.79
2023-03-29T11:41:25.403Z,27.53
2023-03-29T11:44:31.263Z,26.92
2023-03-29T11:47:39.802Z,27.11
2023-03-29T11:50:58.946Z,26.20
2023-03-29T11:54:17.042Z,27.90
2023-03-29T11:57:35.355Z,28.74
2023-03-29T12:00:44.964Z,28.49
2023-03-29T12:03:56.050Z,29.65
2023-03-29T12:07:09.043Z,29.58
2023-03-29T12:10:20.841Z,29.64
2023-03-29T12:13:34.284Z,30.47
2023-03-29T12:16:46.866Z,29.76
2023-03-29T12:20:00.175Z,28.88
2023-03-29T12:23:03.189Z,28.94
2023-03-29T12:26:38.086Z,29.87
2023-03-29T12:30:19.613Z,29.12
2023-03-29T12:33:43.464Z,30.19
2023-03-29T12:37:07.775Z,30.65
2023-03-29T12:40:42.417Z,29.71
2023-03-29T12:44:04.803Z,29.68
2023-03-29T12:47:45.753Z,27.81
2023-03-29T12:51:01.188Z,27.56
2023-03-29T12:54:16.071Z,28.55
2023-03-29T12:57:28.362Z,30.23
2023-03-29T13:00:34.199Z,28.18
2023-03-29T13:03:39.790Z,28.48
2023-03-29T13:07:04.005Z,27.77
2023-03-29T13:10:28.617Z,26.62
2023-03-29T13:13:36.769Z,25.95
2023-03-29T13:16:41.775Z,25.40
2023-03-29T13:20:06.118Z,24.50
2023-03-29T13:23:25.328Z,23.61
2023-03-29T13:26:36.956Z,24.94
2023-03-29T13:30:03.182Z,24.31
2023-03-29T13:33:25.670Z,23.85
2023-03-29T13:36:51.280Z,23.68
2023-03-29T13:39:55.985Z,23.68
2023-03-29T13:43:02.113Z,22.99
2023-03-29T13:46:16.648Z,21.81
2023-03-29T13:49:25.926Z,19.50
2023-03-29T13:52:39.415Z,20.86
2023-03-29T13:55:49.449Z,21.26
2023-03-29T13:58:58.306Z,20.75
2023-03-29T14:02:03.181Z,20.17
2023-03-29T14:05:09.883Z,19.77
2023-03-29T14:08:25.662Z,20.64
2023-03-29T14:11:30.996Z,22.25
2023-03-29T14:14:33.944Z,21.66
2023-03-29T14:17:37.512Z,23.11
2023-03-29T14:20:45.979Z,24.65
2023-03-29T14:23:56.315Z,25.97
2023-03-29T14:27:04.666Z,25.73
2023-03-29T14:30:18.593Z,26.22
2023-03-29T14:33:30.227Z,27.83
2023-03-29T14:36:33.821Z,28.26
2023-03-29T14:39:37.548Z,28.48
2023-03-29T14:42:41.392Z,28.38
2023-03-29T14:45:44.824Z,29.43
2023-03-29T14:48:48.451Z,30.95
2023-03-29T14:51:52.590Z,31.71
2023-03-29T14:54:58.549Z,31.99
2023-03-29T14:58:01.588Z,32.17
2023-03-29T15:01:14.808Z,32.02
2023-03-29T15:04:17.925Z,33.32
2023-03-29T15:07:23.919Z,32.71
2023-03-29T15:10:27.347Z,31.69
2023-03-29T15:13:31.024Z,32.20
2023-03-29T15:16:33.958Z,32.84
2023-03-29T15:19:37.186Z,32.26
2023-03-29T15:22:52.097Z,32.75
2023-03-29T15:25:56.529Z,32.21
2023-03-29T15:29:23.508Z,33.25
2023-03-29T15:32:34.458Z,33.76
2023-03-29T15:35:38.163Z,34.53
2023-03-29T15:38:45.005Z,33.67
2023-03-29T15:41:50.914Z,33.79
2023-03-29T15:44:54.829Z,33.66
2023-03-29T15:47:57.629Z,34.06
2023-03-29T15:51:04.640Z,33.68
2023-03-29T15:54:09.300Z,33.33
2023-03-29T15:57:16.439Z,33.82
2023-03-29T16:00:21.229Z,33.85
2023-03-29T16:03:24.104Z,33.84
2023-03-29T16:06:27.533Z,34.04
2023-03-29T16:09:30.864Z,35.75
2023-03-29T16:12:36.001Z,35.81
2023-03-29T16:15:41.082Z,37.26
2023-03-29T16:18:43.869Z,37.34
2023-03-29T16:21:48.232Z,37.99
2023-03-29T16:24:51.602Z,37.98
2023-03-29T16:27:54.574Z,38.77
2023-03-29T16:30:57.381Z,38.90
2023-03-29T16:34:00.324Z,38.80
2023-03-29T16:37:03.221Z,39.39
2023-03-29T16:40:07.849Z,40.04
2023-03-29T16:43:18.804Z,39.53
2023-03-29T16:46:21.721Z,39.72
2023-03-29T16:49:25.119Z,39.73
2023-03-29T16:52:28.039Z,40.36
2023-03-29T16:55:31.073Z,40.99
2023-03-29T16:58:33.864Z,41.90
2023-03-29T17:01:37.383Z,40.61
2023-03-29T17:04:40.568Z,40.28
2023-03-29T17:07:43.517Z,40.98
2023-03-29T17:10:46.475Z,39.98
2023-03-29T17:13:50.467Z,40.38
2023-03-29T17:16:54.045Z,41.30
2023-03-29T17:19:57.391Z,41.16
2023-03-29T17:23:00.178Z,40.43
2023-03-29T17:26:03.701Z,41.86
2023-03-29T17:29:07.205Z,41.01
2023-03-29T17:32:10.737Z,40.33
2023-03-29T17:35:13.553Z,40.42
2023-03-29T17:38:16.444Z,40.70
2023-03-29T17:41:19.599Z,41.21
2023-03-29T17:44:22.567Z,41.08
2023-03-29T17:47:25.650Z,41.56
2023-03-29T17:50:28.587Z,42.05
2023-03-29T17:53:31.613Z,42.85
2023-03-29T17:56:34.460Z,43.19
2023-03-29T17:59:38.176Z,42.90
2023-03-29T18:02:41.695Z,42.45
2023-03-29T18:05:44.995Z,43.33
2023-03-29T18:08:48.242Z,42.94
2023-03-29T18:11:51.190Z,43.50
2023-03-29T18:14:56.674Z,43.68
2023-03-29T18:17:59.808Z,43.11
2023-03-29T18:21:02.682Z,41.22
2023-03-29T18:24:06.104Z,40.96
2023-03-29T18:27:08.907Z,41.05
2023-03-29T18:30:14.000Z,42.35
2023-03-29T18:33:17.284Z,41.82
2023-03-29T18:36:20.518Z,42.66
2023-03-29T18:39:24.141Z,43.29
2023-03-29T18:42:27.159Z,43.83
2023-03-29T18:45:29.962Z,44.05
2023-03-29T18:48:38.958Z,45.09
2023-03-29T18:51:42.559Z,46.77
2023-03-29T18:54:46.868Z,47.03
2023-03-29T18:57:50.058Z,47.94
2023-03-29T19:00:53.078Z,45.59
2023-03-29T19:03:58.086Z,45.54
2023-03-29T19:07:01.622Z,44.58
2023-03-29T19:10:08.239Z,45.11
2023-03-29T19:13:11.380Z,46.02
2023-03-29T19:16:14.597Z,46.39
2023-03-29T19:19:23.962Z,46.98
2023-03-29T19:22:26.851Z,48.62
2023-03-29T19:25:31.641Z,48.26
2023-03-29T19:28:35.291Z,49.15
2023-03-29T19:31:38.698Z,49.63
2023-03-29T19:34:42.454Z,49.24
2023-03-29T19:37:45.630Z,49.26
2023-03-29T19:40:50.660Z,50.12
2023-03-29T19:43:53.531Z,50.74
2023-03-29T19:46:56.644Z,50.06
2023-03-29T19:50:00.203Z,50.03
2023-03-29T19:53:03.080Z,49.85
2023-03-29T19:56:07.929Z,50.84
2023-03-29T19:59:14.908Z,51.54
2023-03-29T20:02:18.088Z,52.06
2023-03-29T20:05:21.862Z,52.25
2023-03-29T20:08:25.101Z,52.34
2023-03-29T20:11:29.002Z,53.27
2023-03-29T20:14:32.282Z,53.02
2023-03-29T20:17:35.843Z,52.87
2023-03-29T20:20:38.910Z,52.93
2023-03-29T20:23:42.119Z,53.64
2023-03-29T20:26:44.943Z,54.05
2023-03-29T20:29:49.037Z,52.87
2023-03-29T20:32:53.197Z,53.42
2023-03-29T20:35:56.224Z,53.01
2023-03-29T20:38:59.429Z,54.01
2023-03-29T20:42:02.600Z,54.66
2023-03-29T20:45:05.960Z,54.67
2023-03-29T20:48:09.650Z,54.70
2023-03-29T20:51:14.187Z,55.41
2023-03-29T20:54:18.475Z,55.83
2023-03-29T20:57:21.439Z,56.15
2023-03-29T21:00:25.220Z,56.54
2023-03-29T21:03:28.045Z,57.02
2023-03-29T21:06:31.804Z,56.86
2023-03-29T21:09:35.953Z,57.26
2023-03-29T21:12:40.113Z,58.86
2023-03-29T21:15:43.894Z,58.87
2023-03-29T21:18:47.306Z,58.76
2023-03-29T21:21:52.354Z,59.70
2023-03-29T21:24:55.248Z,59.37
2023-03-29T21:27:58.113Z,59.62
2023-03-29T21:31:05.783Z,59.02
2023-03-29T21:34:09.197Z,58.96
2023-03-29T21:37:15.077Z,59.16
2023-03-29T21:40:18.127Z,59.35
2023-03-29T21:43:21.646Z,58.09
2023-03-29T21:46:26.053Z,58.12
2023-03-29T21:49:28.861Z,57.36
2023-03-29T21:52:32.012Z,57.75
2023-03-29T21:55:37.450Z,59.25
2023-03-29T21:58:40.690Z,59.11
2023-03-29T22:01:43.569Z,58.46
2023-03-29T22:04:46.424Z,58.80
2023-03-29T22:07:50.640Z,59.18
2023-03-29T22:10:57.027Z,59.18
2023-03-29T22:13:59.944Z,59.49
2023-03-29T22:17:06.370Z,59.08
2023-03-29T22:20:14.148Z,58.65
2023-03-29T22:23:16.994Z,58.23
2023-03-29T22:26:23.569Z,58.50
2023-03-29T22:29:26.445Z,59.31
2023-03-29T22:32:33.128Z,59.24
2023-03-29T22:35:36.097Z,59.66
2023-03-29T22:38:39.040Z,59.54
2023-03-29T22:41:42.365Z,59.82
2023-03-29T22:44:45.207Z,59.45
2023-03-29T22:47:48.063Z,59.57
2023-03-29T22:50:50.888Z,59.05
2023-03-29T22:53:53.820Z,59.09
2023-03-29T22:56:57.375Z,59.71
2023-03-29T23:00:00.250Z,59.58
2023-03-29T23:03:03.136Z,58.97
2023-03-29T23:06:06.884Z,59.62
2023-03-29T23:09:10.530Z,58.38
2023-03-29T23:12:13.577Z,58.46
2023-03-29T23:15:17.298Z,58.54
2023-03-29T23:18:21.566Z,58.63
2023-03-29T23:21:25.248Z,59.16
2023-03-29T23:24:30.586Z,59.35
2023-03-29T23:27:33.415Z,58.29
2023-03-29T23:30:37.378Z,58.88
2023-03-29T23:33:42.841Z,57.04
2023-03-29T23:36:45.719Z,57.27
2023-03-29T23:39:48.475Z,58.23
2023-03-29T23:42:51.361Z,57.78
2023-03-29T23:45:57.808Z,57.12
2023-03-29T23:49:00.612Z,57.60
2023-03-29T23:52:03.668Z,55.81
2023-03-29T23:55:08.739Z,55.93
2023-03-29T23:58:11.821Z,55.12
